x

South Santa Rosa Is. Ca (46069) Wave Buoy

8:50 - Wed 2nd Sep 2015 All times are PDT. -7 hours from GMT.

  • Sig Wave height 6.2ft
  • Peak Period 11s
  • Average Period 7s
  • Wind
    16mph, 18mph gusts
  • Sea Temp 67°f
  • Luft Temp 65°f
  • Sea Pressure 1011.8mb
  • South Santa Rosa Is. Ca
  • South Santa Rosa Is. Ca

More Historic Weather Station data

Upgrade to MSW Pro to gain access to the past 30 days of data for over 8000 Wavebouys and Weather Stations around the globe.

Join Pro

Comparision Forecast

View Surf forecast
   
Mi 09/02 8:50 6ft 11s 7s 16 18 mph 1011.8mb 67f 65f
7:50 5.5ft 10s 7s 18 20 mph 1011.2mb 68f 65f
6:50 5.5ft 11s 7s 16 18 mph 1011.3mb 68f 66f
5:50 5.5ft 11s 8s 16 18 mph 1011.5mb 68f 66f
4:50 5.5ft 11s 8s 13 16 mph 1011.8mb 68f 66f
3:50 5.5ft 11s 8s 11 13 mph 1012.2mb 68f 66f
2:50 6ft 11s 8s 9 11 mph 1012.7mb 67f 66f
1:50 6ft 12s 8s 9
mph
1013.4mb 67f 66f
12:50 7.5ft 11s 8s 7 9 mph 1013.9mb 67f 66f
11:50 6ft 11s 7s 7 9 mph 1014.2mb 66f 65f
9:50 7ft 11s 8s 7 9 mph 1014.3mb 67f 65f
8:50 6.5ft 10s 8s 7 9 mph 1014.1mb 67f 65f
7:50 6ft 11s 8s 9 11 mph 1013.8mb 67f 64f
6:50 5.5ft 11s 8s 13 16 mph 1013.3mb 67f 63f
5:50 5.5ft 11s 8s 9 11 mph 1013.2mb 67f 63f
4:50 5.5ft 10s 8s 7 9 mph 1012.9mb 67f 64f
3:50 5.5ft 11s 8s 7 11 mph 1012.9mb 67f 64f
2:50 6.5ft 11s 8s 9 11 mph 1012.9mb 67f 64f
1:50 6.5ft 11s 7s 11 13 mph 1012.8mb 67f 64f
12:50 6.5ft 8s 7s 13 16 mph 1013mb 67f 64f
Di 09/01 11:50 7ft 11s 7s 13 16 mph 1013.2mb 66f 64f
10:50 7ft 12s 7s 13 16 mph 1013mb 66f 65f
9:50 7ft 14s 7s 13 18 mph 1012.9mb 66f 65f
8:50 7ft 11s 7s 13 16 mph 1012.6mb 66f 65f
7:50 7ft 11s 7s 13 16 mph 1011.7mb 66f 65f
6:50 7.5ft 12s 8s 16 18 mph 1011.7mb 67f 65f
5:50 7ft 11s 8s 13 16 mph 1011.2mb 66f 65f
4:50 7ft 13s 8s 11 13 mph 1011.5mb 66f 65f
3:50 6ft 11s 8s 11 13 mph 1011.6mb 66f 65f
2:50 6ft 11s 8s 11 13 mph 1012.2mb 66f 64f
1:50 7.5ft 11s 8s 13 16 mph 1012.6mb 66f 64f
12:50 7ft 11s 8s 13 16 mph 1012.6mb 66f 64f
11:50 7ft 9s 7s 13 16 mph 1013mb 66f 64f
10:50 7.5ft 8s 7s 13 16 mph 1013.3mb 65f 64f
9:50 7.5ft 12s 7s 13 16 mph 1013.1mb 65f 64f
8:50 8ft 12s 8s 13 16 mph 1012.8mb 65f 64f
7:50 7.5ft 12s 7s 13 16 mph 1012.5mb 65f 64f
6:50 8ft 12s 8s 13 18 mph 1012.2mb 65f 64f
5:50 7.5ft 11s 8s 13 18 mph 1011.8mb 65f 63f
4:50 8ft 11s 8s 16 18 mph 1011.6mb 65f 63f
3:50 7ft 11s 7s 16 20 mph 1011.6mb 65f 63f
2:50 6.5ft 15s 7s 18 20 mph 1011.6mb 65f 63f
1:50 7.5ft 14s 7s 18 22 mph 1011.8mb 65f 63f
12:50 7.5ft 15s 6s 20 22 mph 1011.9mb 65f 63f
Mo 08/31 11:50 7ft 8s 6s 22 27 mph 1011.5mb 65f 63f
10:50 7.5ft 7s 6s 22 27 mph 1011.4mb 65f 63f
9:50 8ft 7s 6s 22 27 mph 1011.4mb 65f 64f
8:50 8ft 8s 6s 22 27 mph 1011.1mb 65f 64f
7:50 7.5ft 8s 6s 25 27 mph 1010.4mb 66f 64f
6:50 7ft 8s 6s 25 29 mph 1010.5mb 66f 64f
5:50 7ft 16s 7s 25 29 mph 1011mb 66f 65f
4:50 7ft 16s 6s 20 27 mph 1011.3mb 66f 65f
3:50 6.5ft 15s 6s 20 22 mph 1011.4mb 66f 65f
2:50 7ft 15s 6s 18 22 mph 1012mb 66f 65f
1:50 6.5ft 8s 6s 20 25 mph 1012.4mb 66f 64f
12:50 7ft 16s 6s 20 25 mph 1012.3mb 66f 64f
11:50 7ft 16s 6s 22 27 mph 1012.2mb 66f 64f
10:50 7.5ft 16s 6s 25 29 mph 1012.3mb 66f 64f
9:50 7ft 7s 6s 25 29 mph 1011.9mb 66f 64f
8:50 8ft 8s 6s 25 29 mph 1011.7mb 66f 64f
7:50 8.5ft 8s 6s 20 25 mph 1011.5mb 66f 65f
6:50 8ft 8s 6s 20 25 mph 1010.9mb 66f 65f
5:50 9ft 8s 7s 20 27 mph 1010.2mb 66f 65f
4:50 10ft 8s 7s 22 27 mph 1009.8mb 66f 65f
3:50 9ft 17s 7s 25 29 mph 1009.3mb 65f 65f
2:50 9ft 8s 6s 25 29 mph 1009.5mb 65f 65f
1:50 9.5ft 8s 7s 27 31 mph 1009.2mb 66f 65f
12:50 9.5ft 8s 6s 27 31 mph 1009.3mb 66f 65f
So 08/30 11:50 10ft 8s 6s 25 29 mph 1009.4mb 66f 65f
10:50 10ft 8s 7s 25 31 mph 1009.3mb 66f 65f
9:50 9.5ft 7s 6s 25 29 mph 1009.7mb 66f 65f
8:50 9ft 8s 6s 27 34 mph 1009.6mb 66f 65f
7:50 8ft 7s 6s 27 34 mph 1009.5mb 66f 65f
6:50 8.5ft 7s 6s 25 29 mph 1010.2mb 66f 65f
5:50 7.5ft 7s 6s 22 27 mph 1010.8mb 66f 65f
4:50 7.5ft 7s 6s 22 29 mph 1011.3mb 66f 65f
3:50 8ft 7s 6s 22 27 mph 1011.7mb 65f 65f
2:50 7.5ft 7s 6s 27 31 mph 1011.6mb 65f 65f
1:50 8ft 7s 6s 27 31 mph 1012.2mb 65f 65f
12:50 8ft 7s 6s 25 29 mph 1012.8mb 65f 65f
11:50 8.5ft 7s 6s 27 34 mph 1013.1mb 65f 65f
9:50 8.5ft 7s 6s 29 36 mph 1012.8mb 65f 65f
8:50 8.5ft 7s 6s 27 34 mph 1012.9mb 65f 65f
7:50 7.5ft 6s 5s 25 31 mph 1012.7mb 64f 65f
6:50 7ft 7s 5s 27 34 mph 1012.2mb 65f 65f
5:50 6ft 7s 5s 27 31 mph 1011.7mb 65f 65f